createdAt,value
2022-11-10T00:01:51.912Z,2.63
2022-11-10T00:03:53.525Z,2.70
2022-11-10T00:05:55.833Z,2.40
2022-11-10T00:07:57.929Z,2.25
2022-11-10T00:09:59.620Z,2.80
2022-11-10T00:12:01.044Z,2.72
2022-11-10T00:14:21.055Z,2.45
2022-11-10T00:16:40.794Z,2.85
2022-11-10T00:18:42.211Z,2.70
2022-11-10T00:20:43.658Z,2.95
2022-11-10T00:22:45.118Z,2.90
2022-11-10T00:24:47.063Z,3.20
2022-11-10T00:26:48.519Z,3.33
2022-11-10T00:28:49.990Z,3.47
2022-11-10T00:30:51.639Z,3.38
2022-11-10T00:32:53.082Z,3.60
2022-11-10T00:34:54.504Z,3.67
2022-11-10T00:36:55.945Z,4.00
2022-11-10T00:38:57.427Z,3.85
2022-11-10T00:41:02.335Z,3.95
2022-11-10T00:43:03.743Z,4.00
2022-11-10T00:45:05.907Z,4.22
2022-11-10T00:47:07.343Z,4.82
2022-11-10T00:49:08.831Z,4.15
2022-11-10T00:51:24.030Z,4.88
2022-11-10T00:53:25.558Z,4.57
2022-11-10T00:55:27.019Z,4.22
2022-11-10T00:57:28.435Z,4.20
2022-11-10T00:59:29.862Z,4.45
2022-11-10T01:01:31.498Z,4.53
2022-11-10T01:03:33.133Z,4.57
2022-11-10T01:05:38.345Z,4.50
2022-11-10T01:07:39.810Z,4.47
2022-11-10T01:09:41.247Z,4.53
2022-11-10T01:11:42.758Z,4.93
2022-11-10T01:13:45.042Z,4.70
2022-11-10T01:15:46.477Z,4.32
2022-11-10T01:17:48.087Z,4.93
2022-11-10T01:19:49.491Z,4.68
2022-11-10T01:21:52.248Z,4.90
2022-11-10T01:23:53.970Z,5.10
2022-11-10T01:26:04.716Z,4.68
2022-11-10T01:28:06.152Z,5.45
2022-11-10T01:30:08.037Z,3.92
2022-11-10T01:32:09.504Z,4.72
2022-11-10T01:34:10.919Z,4.35
2022-11-10T01:36:12.815Z,4.15
2022-11-10T01:38:14.239Z,3.88
2022-11-10T01:40:15.791Z,4.70
2022-11-10T01:42:24.669Z,4.80
2022-11-10T01:46:27.482Z,4.00
2022-11-10T01:48:59.931Z,4.18
2022-11-10T01:51:14.482Z,3.95
2022-11-10T01:53:23.736Z,4.18
2022-11-10T01:55:26.192Z,4.05
2022-11-10T01:57:28.275Z,3.50
2022-11-10T01:59:35.471Z,3.88
2022-11-10T02:01:36.893Z,3.70
2022-11-10T02:04:00.183Z,4.25
2022-11-10T02:06:02.086Z,3.90
2022-11-10T02:08:05.285Z,4.43
2022-11-10T02:10:14.392Z,3.80
2022-11-10T02:12:16.101Z,3.92
2022-11-10T02:14:17.722Z,4.45
2022-11-10T02:16:19.394Z,4.18
2022-11-10T02:18:20.840Z,3.63
2022-11-10T02:20:22.388Z,3.80
2022-11-10T02:22:23.845Z,4.13
2022-11-10T02:24:25.272Z,3.97
2022-11-10T02:26:30.150Z,3.97
2022-11-10T02:28:38.334Z,4.47
2022-11-10T02:30:39.776Z,4.22
2022-11-10T02:32:41.248Z,4.00
2022-11-10T02:34:42.922Z,4.13
2022-11-10T02:36:44.360Z,4.03
2022-11-10T02:38:45.763Z,4.35
2022-11-10T02:40:49.234Z,4.57
2022-11-10T02:42:50.646Z,4.32
2022-11-10T02:44:52.111Z,4.45
2022-11-10T02:46:53.579Z,4.20
2022-11-10T02:48:55.048Z,4.93
2022-11-10T02:50:56.476Z,4.32
2022-11-10T02:52:57.889Z,4.00
2022-11-10T02:54:59.363Z,4.20
2022-11-10T02:57:02.711Z,4.10
2022-11-10T02:59:04.862Z,4.30
2022-11-10T03:01:07.003Z,4.25
2022-11-10T03:03:08.511Z,4.30
2022-11-10T03:05:10.430Z,3.78
2022-11-10T03:07:11.945Z,5.00
2022-11-10T03:09:13.383Z,5.18
2022-11-10T03:11:14.801Z,4.03
2022-11-10T03:13:16.244Z,4.40
2022-11-10T03:15:17.737Z,5.10
2022-11-10T03:17:19.255Z,5.00
2022-11-10T03:19:20.673Z,4.72
2022-11-10T03:21:22.205Z,4.13
2022-11-10T03:23:24.616Z,4.35
2022-11-10T03:25:26.324Z,3.88
2022-11-10T03:27:27.898Z,4.35
2022-11-10T03:29:29.383Z,5.35
2022-11-10T03:31:30.799Z,4.38
2022-11-10T03:33:32.904Z,4.40
2022-11-10T03:35:34.417Z,4.47
2022-11-10T03:37:35.842Z,5.28
2022-11-10T03:39:37.649Z,4.90
2022-11-10T03:41:39.062Z,4.57
2022-11-10T03:43:40.507Z,4.57
2022-11-10T03:45:44.456Z,4.68
2022-11-10T03:47:47.828Z,4.55
2022-11-10T03:49:49.235Z,4.90
2022-11-10T03:51:50.660Z,5.25
2022-11-10T03:53:52.116Z,4.07
2022-11-10T03:55:53.531Z,4.65
2022-11-10T03:57:54.938Z,4.43
2022-11-10T03:59:56.376Z,4.43
2022-11-10T04:01:57.946Z,4.30
2022-11-10T04:03:59.425Z,4.57
2022-11-10T04:06:19.373Z,4.90
2022-11-10T04:08:39.150Z,4.93
2022-11-10T04:10:40.598Z,4.50
2022-11-10T04:13:00.665Z,4.38
2022-11-10T04:15:20.490Z,4.55
2022-11-10T04:17:21.928Z,5.00
2022-11-10T04:19:23.525Z,4.72
2022-11-10T04:21:24.973Z,5.00
2022-11-10T04:23:34.841Z,4.70
2022-11-10T04:25:56.226Z,4.93
2022-11-10T04:27:57.643Z,5.13
2022-11-10T04:29:59.051Z,4.70
2022-11-10T04:32:00.505Z,5.50
2022-11-10T04:34:01.907Z,4.85
2022-11-10T04:36:04.248Z,4.50
2022-11-10T04:38:05.684Z,5.03
2022-11-10T04:40:07.550Z,4.60
2022-11-10T04:42:09.002Z,4.90
2022-11-10T04:44:10.420Z,5.47
2022-11-10T04:46:19.444Z,4.78
2022-11-10T04:48:20.958Z,4.60
2022-11-10T04:50:22.417Z,6.18
2022-11-10T04:52:23.935Z,4.97
2022-11-10T04:54:25.492Z,5.13
2022-11-10T04:56:27.586Z,5.53
2022-11-10T04:58:29.079Z,4.80
2022-11-10T05:00:30.540Z,5.43
2022-11-10T05:02:35.615Z,5.13
2022-11-10T05:04:40.746Z,6.47
2022-11-10T05:06:42.270Z,5.70
2022-11-10T05:08:44.451Z,5.38
2022-11-10T05:10:45.870Z,6.00
2022-11-10T05:12:47.317Z,6.35
2022-11-10T05:14:48.741Z,5.78
2022-11-10T05:16:50.160Z,7.55
2022-11-10T05:18:54.180Z,6.97
2022-11-10T05:20:55.640Z,7.30
2022-11-10T05:23:15.503Z,8.25
2022-11-10T05:25:17.035Z,7.80
2022-11-10T05:27:18.498Z,8.65
2022-11-10T05:29:19.898Z,9.38
2022-11-10T05:31:21.321Z,9.50
2022-11-10T05:33:23.121Z,8.73
2022-11-10T05:35:25.438Z,8.88
2022-11-10T05:37:26.892Z,9.38
2022-11-10T05:39:28.316Z,9.60
2022-11-10T05:41:29.757Z,8.45
2022-11-10T05:43:31.146Z,9.25
2022-11-10T05:45:32.569Z,10.05
2022-11-10T05:47:37.272Z,10.13
2022-11-10T05:49:38.678Z,10.27
2022-11-10T05:51:40.093Z,9.95
2022-11-10T05:53:41.505Z,10.95
2022-11-10T05:55:43.011Z,10.00
2022-11-10T05:57:48.818Z,9.95
2022-11-10T05:59:50.226Z,11.90
2022-11-10T06:01:51.812Z,10.70
2022-11-10T06:03:53.264Z,10.90
2022-11-10T06:05:54.763Z,11.02
2022-11-10T06:07:56.556Z,11.63
2022-11-10T06:09:57.969Z,11.52
2022-11-10T06:11:59.403Z,10.55
2022-11-10T06:14:00.919Z,12.32
2022-11-10T06:16:02.351Z,11.63
2022-11-10T06:18:03.903Z,11.52
2022-11-10T06:20:05.879Z,12.77
2022-11-10T06:22:08.026Z,11.63
2022-11-10T06:24:11.078Z,12.30
2022-11-10T06:26:12.528Z,11.68
2022-11-10T06:28:14.960Z,10.75
2022-11-10T06:30:16.797Z,11.82
2022-11-10T06:32:18.232Z,11.23
2022-11-10T06:34:19.640Z,11.80
2022-11-10T06:36:21.667Z,10.98
2022-11-10T06:38:23.117Z,11.70
2022-11-10T06:40:24.560Z,11.10
2022-11-10T06:42:25.963Z,12.13
2022-11-10T06:44:27.529Z,12.25
2022-11-10T06:46:29.057Z,10.77
2022-11-10T06:48:30.491Z,11.75
2022-11-10T06:50:32.334Z,10.48
2022-11-10T06:52:33.824Z,11.30
2022-11-10T06:54:35.308Z,10.75
2022-11-10T06:56:36.839Z,11.05
2022-11-10T06:58:38.250Z,10.57
2022-11-10T07:00:40.351Z,11.32
2022-11-10T07:02:41.914Z,11.43
2022-11-10T07:04:43.344Z,11.82
2022-11-10T07:06:47.723Z,10.75
2022-11-10T07:08:49.371Z,11.27
2022-11-10T07:10:53.178Z,11.00
2022-11-10T07:12:59.219Z,11.48
2022-11-10T07:15:00.653Z,13.50
2022-11-10T07:17:02.102Z,10.60
2022-11-10T07:19:03.748Z,11.25
2022-11-10T07:21:06.408Z,10.98
2022-11-10T07:23:08.593Z,11.75
2022-11-10T07:25:11.328Z,11.02
2022-11-10T07:27:12.753Z,11.35
2022-11-10T07:29:14.187Z,11.23
2022-11-10T07:31:15.601Z,10.48
2022-11-10T07:33:17.036Z,12.05
2022-11-10T07:35:18.469Z,12.15
2022-11-10T07:37:19.866Z,11.05
2022-11-10T07:39:21.313Z,11.43
2022-11-10T07:41:22.845Z,11.35
2022-11-10T07:43:25.732Z,10.88
2022-11-10T07:45:28.246Z,11.73
2022-11-10T07:47:29.682Z,10.65
2022-11-10T07:49:31.097Z,10.95
2022-11-10T07:51:32.512Z,11.10
2022-11-10T07:53:34.316Z,11.00
2022-11-10T07:55:38.264Z,10.60
2022-11-10T07:57:39.965Z,11.30
2022-11-10T07:59:41.359Z,10.20
2022-11-10T08:01:42.864Z,10.57
2022-11-10T08:03:44.344Z,10.07
2022-11-10T08:05:45.840Z,11.27
2022-11-10T08:07:47.332Z,10.55
2022-11-10T08:09:48.831Z,11.07
2022-11-10T08:11:50.253Z,10.20
2022-11-10T08:13:51.660Z,12.07
2022-11-10T08:15:53.093Z,10.18
2022-11-10T08:18:00.111Z,10.32
2022-11-10T08:20:01.792Z,10.98
2022-11-10T08:22:03.204Z,9.40
2022-11-10T08:24:04.750Z,10.70
2022-11-10T08:26:06.178Z,10.52
2022-11-10T08:28:18.004Z,10.32
2022-11-10T08:30:19.427Z,9.35
2022-11-10T08:32:21.239Z,10.73
2022-11-10T08:34:23.036Z,9.68
2022-11-10T08:36:24.635Z,10.13
2022-11-10T08:38:26.060Z,9.25
2022-11-10T08:40:27.827Z,9.30
2022-11-10T08:42:29.294Z,9.68
2022-11-10T08:44:30.697Z,9.35
2022-11-10T08:46:32.126Z,10.40
2022-11-10T08:48:33.962Z,8.55
2022-11-10T08:50:35.882Z,9.82
2022-11-10T08:52:37.446Z,9.85
2022-11-10T08:54:38.850Z,9.55
2022-11-10T08:56:40.291Z,8.95
2022-11-10T08:58:48.782Z,9.30
2022-11-10T09:00:52.465Z,10.48
2022-11-10T09:02:55.478Z,9.07
2022-11-10T09:04:56.959Z,8.23
2022-11-10T09:06:58.416Z,9.23
2022-11-10T09:08:59.847Z,8.15
2022-11-10T09:11:04.633Z,8.55
2022-11-10T09:13:06.786Z,7.57
2022-11-10T09:15:09.911Z,8.50
2022-11-10T09:17:11.348Z,8.60
2022-11-10T09:19:18.467Z,8.55
2022-11-10T09:21:21.223Z,8.43
2022-11-10T09:23:24.980Z,8.50
2022-11-10T09:25:26.842Z,7.88
2022-11-10T09:27:28.299Z,7.43
2022-11-10T09:29:29.692Z,8.20
2022-11-10T09:31:31.163Z,7.75
2022-11-10T09:33:32.562Z,7.25
2022-11-10T09:35:34.273Z,7.68
2022-11-10T09:37:40.053Z,8.15
2022-11-10T09:39:41.558Z,6.40
2022-11-10T09:41:44.606Z,6.72
2022-11-10T09:44:04.666Z,7.45
2022-11-10T09:46:16.226Z,5.90
2022-11-10T09:48:25.770Z,6.38
2022-11-10T09:50:41.979Z,6.15
2022-11-10T09:52:45.532Z,7.10
2022-11-10T09:54:56.716Z,7.10
2022-11-10T09:57:02.409Z,6.68
2022-11-10T09:59:15.754Z,6.15
2022-11-10T10:01:32.279Z,7.05
2022-11-10T10:03:37.337Z,6.75
2022-11-10T10:05:52.321Z,6.72
2022-11-10T10:08:12.564Z,6.18
2022-11-10T10:10:32.145Z,5.88
2022-11-10T10:12:39.313Z,6.45
2022-11-10T10:15:05.139Z,6.03
2022-11-10T10:17:15.460Z,5.65
2022-11-10T10:19:49.434Z,5.90
2022-11-10T10:22:04.666Z,4.93
2022-11-10T10:24:19.835Z,4.72
2022-11-10T10:26:27.552Z,5.00
2022-11-10T10:28:35.408Z,5.57
2022-11-10T10:30:36.854Z,5.38
2022-11-10T10:32:38.262Z,5.63
2022-11-10T10:36:44.392Z,4.35
2022-11-10T10:38:49.851Z,4.53
2022-11-10T10:40:52.753Z,4.70
2022-11-10T10:42:54.283Z,4.57
2022-11-10T10:45:21.918Z,4.30
2022-11-10T10:47:36.381Z,4.82
2022-11-10T10:49:37.841Z,4.05
2022-11-10T10:51:39.326Z,4.85
2022-11-10T10:53:47.878Z,4.07
2022-11-10T10:55:54.811Z,3.83
2022-11-10T10:58:02.832Z,4.45
2022-11-10T11:00:30.765Z,3.92
2022-11-10T11:02:32.488Z,4.40
2022-11-10T11:04:36.475Z,4.32
2022-11-10T11:06:37.960Z,4.00
2022-11-10T11:08:39.578Z,3.78
2022-11-10T11:10:45.271Z,4.03
2022-11-10T11:12:46.831Z,3.58
2022-11-10T11:14:48.400Z,3.70
2022-11-10T11:16:51.145Z,3.58
2022-11-10T11:18:52.578Z,3.80
2022-11-10T11:21:13.066Z,3.42
2022-11-10T11:23:51.896Z,3.63
2022-11-10T11:25:57.721Z,3.25
2022-11-10T11:28:26.743Z,3.17
2022-11-10T11:30:41.925Z,3.20
2022-11-10T11:33:04.939Z,2.88
2022-11-10T11:35:12.389Z,2.47
2022-11-10T11:37:32.849Z,2.92
2022-11-10T11:39:34.212Z,3.30
2022-11-10T11:41:46.627Z,3.38
2022-11-10T11:44:25.586Z,3.03
2022-11-10T11:46:33.090Z,3.58
2022-11-10T11:48:52.857Z,2.60
2022-11-10T11:50:57.965Z,3.22
2022-11-10T11:53:14.234Z,3.63
2022-11-10T11:55:26.843Z,3.80
2022-11-10T11:57:45.389Z,2.45
2022-11-10T12:02:18.350Z,4.15
2022-11-10T12:04:22.667Z,3.55
2022-11-10T12:06:47.770Z,3.10
2022-11-10T12:09:01.869Z,3.17
2022-11-10T12:11:31.570Z,3.13
2022-11-10T12:13:51.369Z,2.97
2022-11-10T12:15:59.444Z,2.55
2022-11-10T12:18:03.814Z,3.13
2022-11-10T12:20:26.055Z,3.35
2022-11-10T12:22:41.072Z,2.63
2022-11-10T12:24:54.826Z,2.80
2022-11-10T12:27:24.702Z,2.53
2022-11-10T12:29:41.154Z,3.55
2022-11-10T12:31:46.060Z,2.58
2022-11-10T12:33:57.139Z,2.65
2022-11-10T12:36:03.238Z,3.40
2022-11-10T12:38:11.889Z,2.75
2022-11-10T12:40:19.322Z,3.00
2022-11-10T12:42:24.248Z,2.30
2022-11-10T12:44:33.741Z,3.88
2022-11-10T12:46:35.203Z,2.50
2022-11-10T12:48:53.524Z,2.67
2022-11-10T12:51:12.507Z,2.60
2022-11-10T12:53:24.907Z,2.50
2022-11-10T12:55:36.697Z,3.17
2022-11-10T12:57:38.428Z,2.60
2022-11-10T12:59:48.724Z,2.25
2022-11-10T13:02:01.474Z,3.00
2022-11-10T13:04:03.008Z,3.13
2022-11-10T13:06:07.448Z,2.10
2022-11-10T13:08:29.575Z,1.98
2022-11-10T13:10:31.246Z,3.08
2022-11-10T13:12:33.060Z,2.60
2022-11-10T13:14:34.643Z,3.53
2022-11-10T13:16:39.167Z,2.60
2022-11-10T13:18:40.554Z,2.58
2022-11-10T13:20:45.970Z,3.47
2022-11-10T13:22:47.420Z,2.85
2022-11-10T13:24:48.911Z,2.75
2022-11-10T13:26:54.212Z,3.08
2022-11-10T13:28:57.790Z,2.28
2022-11-10T13:30:59.579Z,2.88
2022-11-10T13:33:23.015Z,1.98
2022-11-10T13:35:27.940Z,2.28
2022-11-10T13:37:29.332Z,1.98
2022-11-10T13:39:34.072Z,2.75
2022-11-10T13:41:48.992Z,3.40
2022-11-10T13:43:53.337Z,2.53
2022-11-10T13:46:05.584Z,2.17
2022-11-10T13:48:12.960Z,2.45
2022-11-10T13:50:28.697Z,2.40
2022-11-10T13:52:39.403Z,2.20
2022-11-10T13:55:10.492Z,2.00
2022-11-10T13:57:23.744Z,2.10
2022-11-10T13:59:28.525Z,2.60
2022-11-10T14:01:30.513Z,2.35
2022-11-10T14:03:47.643Z,2.58
2022-11-10T14:06:04.237Z,1.92
2022-11-10T14:08:05.624Z,2.30
2022-11-10T14:10:23.625Z,2.47
2022-11-10T14:12:30.781Z,2.28
2022-11-10T14:14:51.369Z,1.95
2022-11-10T14:16:54.393Z,2.25
2022-11-10T14:19:04.985Z,1.85
2022-11-10T14:21:11.331Z,2.10
2022-11-10T14:23:22.761Z,2.00
2022-11-10T14:25:27.771Z,2.40
2022-11-10T14:27:33.549Z,2.10
2022-11-10T14:29:40.608Z,2.38
2022-11-10T14:31:44.033Z,2.72
2022-11-10T14:33:57.158Z,1.83
2022-11-10T14:36:01.654Z,2.25
2022-11-10T14:38:06.126Z,2.50
2022-11-10T14:40:15.265Z,2.13
2022-11-10T14:42:22.541Z,2.45
2022-11-10T14:44:26.627Z,2.30
2022-11-10T14:46:28.466Z,2.13
2022-11-10T14:48:32.742Z,2.28
2022-11-10T14:50:35.449Z,2.42
2022-11-10T14:52:41.380Z,2.40
2022-11-10T14:54:46.497Z,2.08
2022-11-10T14:56:48.364Z,3.33
2022-11-10T14:58:51.165Z,2.30
2022-11-10T15:00:53.852Z,2.75
2022-11-10T15:02:57.491Z,1.90
2022-11-10T15:04:59.428Z,2.75
2022-11-10T15:07:01.046Z,2.50
2022-11-10T15:09:14.487Z,2.47
2022-11-10T15:11:54.406Z,2.17
2022-11-10T15:13:55.840Z,1.83
2022-11-10T15:16:22.163Z,1.83
2022-11-10T15:18:29.293Z,2.33
2022-11-10T15:20:30.782Z,2.63
2022-11-10T15:22:36.368Z,2.05
2022-11-10T15:24:42.002Z,2.20
2022-11-10T15:26:43.616Z,3.00
2022-11-10T15:28:46.895Z,1.48
2022-11-10T15:30:57.689Z,2.33
2022-11-10T15:33:02.207Z,2.72
2022-11-10T15:35:29.050Z,2.85
2022-11-10T15:37:31.861Z,3.60
2022-11-10T15:39:33.414Z,2.85
2022-11-10T15:41:35.197Z,2.13
2022-11-10T15:43:36.772Z,2.20
2022-11-10T15:45:38.503Z,1.95
2022-11-10T15:47:41.182Z,1.52
2022-11-10T15:49:43.803Z,2.70
2022-11-10T15:51:45.280Z,2.10
2022-11-10T15:53:48.892Z,2.05
2022-11-10T15:55:50.355Z,2.20
2022-11-10T15:57:51.827Z,1.92
2022-11-10T15:59:53.433Z,2.03
2022-11-10T16:01:55.186Z,2.22
2022-11-10T16:03:56.828Z,1.92
2022-11-10T16:05:58.442Z,1.88
2022-11-10T16:07:59.895Z,2.78
2022-11-10T16:10:01.485Z,1.90
2022-11-10T16:12:03.204Z,2.00
2022-11-10T16:14:05.399Z,2.28
2022-11-10T16:16:07.221Z,2.22
2022-11-10T16:18:17.530Z,2.15
2022-11-10T16:20:18.994Z,1.75
2022-11-10T16:22:20.412Z,2.40
2022-11-10T16:24:21.861Z,1.85
2022-11-10T16:26:26.234Z,2.47
2022-11-10T16:28:28.018Z,2.60
2022-11-10T16:30:30.305Z,2.55
2022-11-10T16:32:31.808Z,2.90
2022-11-10T16:34:33.321Z,3.35
2022-11-10T16:36:34.993Z,3.70
2022-11-10T16:38:36.435Z,2.67
2022-11-10T16:40:37.901Z,2.65
2022-11-10T16:42:39.334Z,2.47
2022-11-10T16:44:42.709Z,2.00
2022-11-10T16:46:47.554Z,2.22
2022-11-10T16:48:51.105Z,2.38
2022-11-10T16:50:54.284Z,1.75
2022-11-10T16:52:56.558Z,2.42
2022-11-10T16:54:58.019Z,1.90
2022-11-10T16:56:59.522Z,2.75
2022-11-10T16:59:01.056Z,2.47
2022-11-10T17:01:02.667Z,2.97
2022-11-10T17:03:15.184Z,2.20
2022-11-10T17:05:16.865Z,2.75
2022-11-10T17:07:24.351Z,2.38
2022-11-10T17:09:26.660Z,2.85
2022-11-10T17:11:28.187Z,2.92
2022-11-10T17:13:29.622Z,3.03
2022-11-10T17:15:32.252Z,2.50
2022-11-10T17:17:35.726Z,3.60
2022-11-10T17:19:37.268Z,2.47
2022-11-10T17:21:40.288Z,2.15
2022-11-10T17:23:42.472Z,2.35
2022-11-10T17:25:44.499Z,2.22
2022-11-10T17:27:45.971Z,1.95
2022-11-10T17:29:47.526Z,2.47
2022-11-10T17:31:50.458Z,2.00
2022-11-10T17:33:52.165Z,1.75
2022-11-10T17:35:54.341Z,2.00
2022-11-10T17:37:58.143Z,2.05
2022-11-10T17:40:07.222Z,1.95
2022-11-10T17:42:13.658Z,1.80
2022-11-10T17:44:16.666Z,1.77
2022-11-10T17:46:18.124Z,2.15
2022-11-10T17:48:19.621Z,2.25
2022-11-10T17:50:23.113Z,2.05
2022-11-10T17:52:24.575Z,1.88
2022-11-10T17:54:25.988Z,2.05
2022-11-10T17:56:27.431Z,1.85
2022-11-10T17:58:30.510Z,1.85
2022-11-10T18:00:31.945Z,1.85
2022-11-10T18:02:33.372Z,1.80
2022-11-10T18:04:34.781Z,1.67
2022-11-10T18:06:36.557Z,1.30
2022-11-10T18:08:38.514Z,1.48
2022-11-10T18:10:51.908Z,1.88
2022-11-10T18:12:53.535Z,1.63
2022-11-10T18:14:55.002Z,1.60
2022-11-10T18:16:56.493Z,2.30
2022-11-10T18:18:58.716Z,1.73
2022-11-10T18:21:00.184Z,1.30
2022-11-10T18:23:01.672Z,1.55
2022-11-10T18:25:03.740Z,1.60
2022-11-10T18:27:05.175Z,1.70
2022-11-10T18:29:06.630Z,1.65
2022-11-10T18:31:12.647Z,1.98
2022-11-10T18:33:14.101Z,1.80
2022-11-10T18:35:15.592Z,1.60
2022-11-10T18:37:17.802Z,2.42
2022-11-10T18:39:19.236Z,1.38
2022-11-10T18:41:39.327Z,2.13
2022-11-10T18:43:40.731Z,1.20
2022-11-10T18:45:42.301Z,1.45
2022-11-10T18:47:43.713Z,1.88
2022-11-10T18:49:45.201Z,1.73
2022-11-10T18:51:46.708Z,1.48
2022-11-10T18:53:48.204Z,1.95
2022-11-10T18:55:56.310Z,1.30
2022-11-10T18:57:57.765Z,2.40
2022-11-10T18:59:59.490Z,1.83
2022-11-10T19:02:01.000Z,2.55
2022-11-10T19:04:02.499Z,1.85
2022-11-10T19:06:04.842Z,2.00
2022-11-10T19:08:07.991Z,1.88
2022-11-10T19:10:09.552Z,1.70
2022-11-10T19:12:11.991Z,1.80
2022-11-10T19:14:13.450Z,2.55
2022-11-10T19:16:17.634Z,1.65
2022-11-10T19:18:19.092Z,2.13
2022-11-10T19:20:20.537Z,1.30
2022-11-10T19:22:22.257Z,1.73
2022-11-10T19:24:28.066Z,1.88
2022-11-10T19:26:29.905Z,1.83
2022-11-10T19:28:31.473Z,1.77
2022-11-10T19:30:32.926Z,2.05
2022-11-10T19:32:34.435Z,1.63
2022-11-10T19:34:36.058Z,2.33
2022-11-10T19:36:37.944Z,2.17
2022-11-10T19:38:40.497Z,1.85
2022-11-10T19:40:42.596Z,2.03
2022-11-10T19:42:44.124Z,1.95
2022-11-10T19:44:45.606Z,1.90
2022-11-10T19:46:47.046Z,1.77
2022-11-10T19:48:48.814Z,1.77
2022-11-10T19:50:54.530Z,2.05
2022-11-10T19:52:55.983Z,1.80
2022-11-10T19:54:57.456Z,1.55
2022-11-10T19:56:59.086Z,1.65
2022-11-10T19:59:00.582Z,1.67
2022-11-10T20:01:02.195Z,2.00
2022-11-10T20:03:03.745Z,2.10
2022-11-10T20:05:16.121Z,1.73
2022-11-10T20:07:36.221Z,1.67
2022-11-10T20:09:37.667Z,1.30
2022-11-10T20:11:39.105Z,2.10
2022-11-10T20:13:41.070Z,1.30
2022-11-10T20:15:43.589Z,2.20
2022-11-10T20:17:45.067Z,1.90
2022-11-10T20:19:46.503Z,1.95
2022-11-10T20:21:47.997Z,1.88
2022-11-10T20:23:54.034Z,1.35
2022-11-10T20:26:14.074Z,1.70
2022-11-10T20:28:15.507Z,1.70
2022-11-10T20:30:22.448Z,1.40
2022-11-10T20:32:26.410Z,1.80
2022-11-10T20:34:27.854Z,1.60
2022-11-10T20:36:30.804Z,1.50
2022-11-10T20:38:32.323Z,1.70
2022-11-10T20:40:48.898Z,1.77
2022-11-10T20:42:50.529Z,2.00
2022-11-10T20:44:51.986Z,1.85
2022-11-10T20:46:54.778Z,1.98
2022-11-10T20:48:56.491Z,1.52
2022-11-10T20:50:57.945Z,2.13
2022-11-10T20:52:59.457Z,2.03
2022-11-10T20:55:05.378Z,1.98
2022-11-10T20:57:06.872Z,1.73
2022-11-10T20:59:08.355Z,1.55
2022-11-10T21:01:15.146Z,1.60
2022-11-10T21:03:16.668Z,2.08
2022-11-10T21:05:18.130Z,1.42
2022-11-10T21:07:19.571Z,1.65
2022-11-10T21:09:21.107Z,2.17
2022-11-10T21:11:41.393Z,1.67
2022-11-10T21:13:42.934Z,1.73
2022-11-10T21:15:50.023Z,1.40
2022-11-10T21:17:51.497Z,1.83
2022-11-10T21:19:55.046Z,1.70
2022-11-10T21:21:56.515Z,1.70
2022-11-10T21:23:57.967Z,1.63
2022-11-10T21:26:01.123Z,1.58
2022-11-10T21:28:02.880Z,1.67
2022-11-10T21:30:05.017Z,2.63
2022-11-10T21:32:08.575Z,1.73
2022-11-10T21:34:10.081Z,1.67
2022-11-10T21:36:11.629Z,1.42
2022-11-10T21:38:14.318Z,2.10
2022-11-10T21:40:16.157Z,1.40
2022-11-10T21:42:20.728Z,1.65
2022-11-10T21:44:22.181Z,1.75
2022-11-10T21:46:23.851Z,1.65
2022-11-10T21:48:25.266Z,1.92
2022-11-10T21:50:26.773Z,1.70
2022-11-10T21:52:34.640Z,1.70
2022-11-10T21:54:36.133Z,2.03
2022-11-10T21:56:37.813Z,2.05
2022-11-10T21:58:39.599Z,1.67
2022-11-10T22:00:41.040Z,1.58
2022-11-10T22:02:42.563Z,1.65
2022-11-10T22:04:44.070Z,1.85
2022-11-10T22:07:04.226Z,2.25
2022-11-10T22:09:05.721Z,2.03
2022-11-10T22:11:31.904Z,2.03
2022-11-10T22:13:51.679Z,1.90
2022-11-10T22:16:11.645Z,1.75
2022-11-10T22:18:34.082Z,1.42
2022-11-10T22:20:35.522Z,1.60
2022-11-10T22:22:36.977Z,2.03
2022-11-10T22:24:38.500Z,1.80
2022-11-10T22:26:39.929Z,2.17
2022-11-10T22:28:41.862Z,1.85
2022-11-10T22:30:43.303Z,1.90
2022-11-10T22:32:44.716Z,1.40
2022-11-10T22:34:46.143Z,1.95
2022-11-10T22:36:50.055Z,1.58
2022-11-10T22:38:51.497Z,1.60
2022-11-10T22:41:11.597Z,1.67
2022-11-10T22:43:38.929Z,2.00
2022-11-10T22:45:44.728Z,2.13
2022-11-10T22:48:04.319Z,1.85
2022-11-10T22:50:06.309Z,1.60
2022-11-10T22:52:07.741Z,1.83
2022-11-10T22:54:11.708Z,1.48
2022-11-10T22:56:13.433Z,1.63
2022-11-10T22:58:14.875Z,1.80
2022-11-10T23:00:16.879Z,1.60
2022-11-10T23:02:18.314Z,1.80
2022-11-10T23:04:19.824Z,1.88
2022-11-10T23:06:21.277Z,2.08
2022-11-10T23:08:22.739Z,1.42
2022-11-10T23:10:24.185Z,2.00
2022-11-10T23:12:25.595Z,1.77
2022-11-10T23:14:27.037Z,2.20
2022-11-10T23:16:32.045Z,1.70
2022-11-10T23:18:33.652Z,1.70
2022-11-10T23:20:35.093Z,1.98
2022-11-10T23:22:36.571Z,2.03
2022-11-10T23:24:38.099Z,2.15
2022-11-10T23:26:39.569Z,2.67
2022-11-10T23:28:41.210Z,2.08
2022-11-10T23:30:42.656Z,1.63
2022-11-10T23:32:44.146Z,1.98
2022-11-10T23:34:45.786Z,1.73
2022-11-10T23:36:47.310Z,2.33
2022-11-10T23:38:48.899Z,2.28
2022-11-10T23:40:55.716Z,2.00
2022-11-10T23:42:57.162Z,1.55
2022-11-10T23:44:58.567Z,1.77
2022-11-10T23:47:00.059Z,1.60
2022-11-10T23:49:01.470Z,2.10
2022-11-10T23:51:04.435Z,1.73
2022-11-10T23:53:05.898Z,2.65
2022-11-10T23:55:07.923Z,1.75
2022-11-10T23:57:09.435Z,1.98
2022-11-10T23:59:10.861Z,1.90
